Time;durP1;ratioP1;P1;durP2;ratioP2;P2;SDS_P1;SDS_P2;PMS_P1;PMS_P2;Temp;Humidity;BMP_temperature;BMP_pressure;BME280_temperature;BME280_humidity;BME280_pressure;Samples;Min_cycle;Max_cycle;Signal;HPM_P1;HPM_P2
2022/10/04 00:01:48;;;;;;;15.60;8.25;;;;;;;13.19;100.00;102313.38;2615157;36;20034;-54
2022/10/04 00:04:21;;;;;;;18.05;8.68;;;;;;;13.29;100.00;102302.72;2615729;36;20594;-55
2022/10/04 00:06:58;;;;;;;15.23;8.00;;;;;;;13.36;100.00;102305.84;2616318;36;20035;-51
2022/10/04 00:09:31;;;;;;;16.75;8.27;;;;;;;13.48;100.00;102307.59;2614892;36;20041;-52
2022/10/04 00:12:01;;;;;;;12.98;8.27;;;;;;;13.39;100.00;102303.75;2615924;36;20555;-51
2022/10/04 00:14:33;;;;;;;15.88;8.95;;;;;;;13.41;100.00;102307.22;2615876;36;20435;-52
2022/10/04 00:17:09;;;;;;;17.85;8.60;;;;;;;13.49;100.00;102306.63;2615091;36;20034;-56
2022/10/04 00:19:46;;;;;;;15.80;8.52;;;;;;;13.48;100.00;102303.03;2615505;36;20030;-51
2022/10/04 00:22:25;;;;;;;18.13;8.00;;;;;;;13.52;100.00;102298.25;2616749;31;20591;-51
2022/10/04 00:25:19;;;;;;;19.83;8.77;;;;;;;13.42;100.00;102292.69;2616244;31;20034;-50
2022/10/04 00:28:17;;;;;;;18.02;8.85;;;;;;;13.47;100.00;102284.22;2616289;36;20080;-53
2022/10/04 00:30:45;;;;;;;15.50;8.33;;;;;;;13.47;100.00;102274.28;2615685;36;20070;-53
2022/10/04 00:33:38;;;;;;;13.75;8.38;;;;;;;13.33;100.00;102272.59;2615786;36;20754;-55
2022/10/04 00:36:36;;;;;;;19.50;8.40;;;;;;;13.39;100.00;102259.63;2615085;36;20022;-53
2022/10/04 00:39:29;;;;;;;15.30;9.23;;;;;;;13.31;100.00;102255.66;2616028;36;20516;-55
2022/10/04 00:42:06;;;;;;;12.95;8.38;;;;;;;13.36;100.00;102254.47;2615893;36;20475;-54
2022/10/04 00:44:41;;;;;;;14.30;8.48;;;;;;;13.37;100.00;102250.75;2614953;36;20026;-55
2022/10/04 00:47:22;;;;;;;19.45;9.27;;;;;;;13.39;100.00;102257.78;2614976;36;20034;-53
2022/10/04 00:49:55;;;;;;;14.50;8.98;;;;;;;13.40;100.00;102264.91;2615140;36;20061;-55
2022/10/04 00:52:28;;;;;;;19.58;8.88;;;;;;;13.37;100.00;102264.28;2615305;36;20030;-53
2022/10/04 00:55:02;;;;;;;18.17;9.40;;;;;;;13.26;100.00;102263.25;2615237;36;20529;-54
2022/10/04 00:57:34;;;;;;;18.23;9.25;;;;;;;13.32;100.00;102260.09;2614395;36;20034;-55
2022/10/04 01:00:07;;;;;;;24.85;10.38;;;;;;;13.41;100.00;102265.78;2614736;36;20030;-55
2022/10/04 01:02:48;;;;;;;15.18;8.73;;;;;;;13.37;100.00;102261.56;2615449;36;20051;-52
2022/10/04 01:05:20;;;;;;;20.67;9.85;;;;;;;13.41;100.00;102254.94;2614986;36;20034;-51
2022/10/04 01:07:52;;;;;;;20.75;9.80;;;;;;;13.31;100.00;102252.09;2616586;31;20058;-55
2022/10/04 01:10:26;;;;;;;14.00;8.90;;;;;;;13.30;100.00;102251.22;2615649;31;20042;-54
2022/10/04 01:12:59;;;;;;;19.13;9.00;;;;;;;13.29;100.00;102249.50;2615939;36;20041;-49
2022/10/04 01:15:35;;;;;;;18.98;9.57;;;;;;;13.24;100.00;102251.69;2615229;36;20026;-54
2022/10/04 01:18:13;;;;;;;16.73;9.48;;;;;;;13.15;100.00;102247.03;2613927;36;20673;-52
2022/10/04 01:20:51;;;;;;;22.47;10.13;;;;;;;13.12;100.00;102247.25;2615111;36;20038;-56
2022/10/04 01:23:44;;;;;;;16.98;10.43;;;;;;;13.08;100.00;102241.22;2616434;36;20306;-55
2022/10/04 01:26:38;;;;;;;14.68;9.40;;;;;;;13.09;100.00;102242.09;2615981;36;20031;-54
2022/10/04 01:29:16;;;;;;;17.10;9.85;;;;;;;12.96;100.00;102220.53;2615317;36;20038;-55
2022/10/04 01:31:46;;;;;;;22.63;9.52;;;;;;;12.86;100.00;102214.97;2615458;36;20045;-52
2022/10/04 01:34:17;;;;;;;21.50;10.60;;;;;;;12.84;100.00;102206.13;2614590;31;20042;-55
2022/10/04 01:36:47;;;;;;;17.15;10.20;;;;;;;12.90;100.00;102200.25;2615351;36;20026;-54
2022/10/04 01:39:20;;;;;;;20.35;10.68;;;;;;;12.81;100.00;102206.38;2616277;36;20102;-53
2022/10/04 01:41:53;;;;;;;22.33;11.13;;;;;;;12.81;100.00;102200.97;2615650;36;20065;-54
2022/10/04 01:44:29;;;;;;;18.77;10.10;;;;;;;13.01;100.00;102206.69;2615708;36;20511;-54
2022/10/04 01:47:02;;;;;;;16.92;10.63;;;;;;;12.97;100.00;102204.22;2615638;36;20038;-51
2022/10/04 01:49:35;;;;;;;17.92;10.57;;;;;;;12.94;100.00;102201.75;2615930;31;20046;-55
2022/10/04 01:52:07;;;;;;;17.40;10.60;;;;;;;12.91;100.00;102202.00;2615616;36;20029;-53
2022/10/04 01:54:42;;;;;;;21.63;10.43;;;;;;;12.79;100.00;102197.50;2614590;36;20024;-54
2022/10/04 01:57:16;;;;;;;20.40;10.57;;;;;;;12.78;100.00;102196.66;2613828;36;20146;-55
2022/10/04 01:59:51;;;;;;;14.80;9.63;;;;;;;12.75;100.00;102196.00;2616037;36;20427;-52
2022/10/04 02:02:27;;;;;;;20.83;11.65;;;;;;;12.78;100.00;102190.41;2615357;36;20029;-53
2022/10/04 02:04:58;;;;;;;20.10;11.07;;;;;;;12.81;100.00;102192.88;2615096;36;20130;-53
2022/10/04 02:07:31;;;;;;;20.40;12.25;;;;;;;12.90;100.00;102184.03;2615805;36;20027;-49
2022/10/04 02:10:05;;;;;;;26.85;11.23;;;;;;;12.74;100.00;102180.81;2615239;36;20030;-52
2022/10/04 02:12:37;;;;;;;23.58;11.57;;;;;;;12.61;100.00;102173.63;2615629;36;20039;-55
2022/10/04 02:15:10;;;;;;;22.13;10.63;;;;;;;12.52;100.00;102166.22;2615819;36;20034;-52
2022/10/04 02:17:42;;;;;;;18.15;10.05;;;;;;;12.51;100.00;102160.94;2616375;36;20109;-50
2022/10/04 02:20:15;;;;;;;16.05;10.23;;;;;;;12.51;100.00;102155.56;2616401;36;20041;-52
2022/10/04 02:22:45;;;;;;;21.20;11.27;;;;;;;12.56;100.00;102162.31;2616700;36;20046;-52
2022/10/04 02:25:19;;;;;;;21.10;11.32;;;;;;;12.51;100.00;102163.66;2614482;36;20039;-55
2022/10/04 02:27:48;;;;;;;14.73;10.40;;;;;;;12.43;100.00;102164.25;2617199;31;20022;-54
2022/10/04 02:30:16;;;;;;;19.63;11.10;;;;;;;12.24;100.00;102159.38;2615662;36;20041;-55
2022/10/04 02:32:59;;;;;;;17.20;11.60;;;;;;;12.19;100.00;102148.03;2615756;36;20450;-52
2022/10/04 02:35:30;;;;;;;20.77;11.63;;;;;;;12.27;100.00;102149.19;2613393;36;20031;-53
2022/10/04 02:38:06;;;;;;;17.70;12.63;;;;;;;12.34;100.00;102137.94;2615930;36;20030;-54
2022/10/04 02:40:42;;;;;;;18.77;10.57;;;;;;;12.21;100.00;102122.66;2616349;36;20030;-53
2022/10/04 02:43:15;;;;;;;22.42;11.50;;;;;;;12.22;100.00;102119.00;2616561;36;20023;-53
2022/10/04 02:45:51;;;;;;;21.33;11.70;;;;;;;12.26;100.00;102117.78;2616174;36;20129;-55
2022/10/04 02:48:37;;;;;;;19.05;11.30;;;;;;;12.16;100.00;102113.19;2615577;36;20053;-56
2022/10/04 02:51:19;;;;;;;18.30;11.20;;;;;;;12.15;100.00;102109.63;2616158;36;20038;-50
2022/10/04 02:53:59;;;;;;;18.98;12.57;;;;;;;12.32;100.00;102111.03;2616128;36;20065;-54
2022/10/04 02:56:30;;;;;;;16.75;11.48;;;;;;;12.39;100.00;102114.16;2616171;36;20238;-53
2022/10/04 02:59:03;;;;;;;16.17;10.85;;;;;;;12.16;100.00;102100.56;2616270;36;20580;-53
2022/10/04 03:01:43;;;;;;;19.48;10.32;;;;;;;12.31;100.00;102103.06;2616727;36;20023;-50
2022/10/04 03:04:15;;;;;;;15.63;11.07;;;;;;;12.18;100.00;102114.78;2615463;31;20030;-52
2022/10/04 03:06:47;;;;;;;24.25;12.15;;;;;;;12.23;100.00;102109.94;2615585;36;20054;-51
2022/10/04 03:09:16;;;;;;;19.30;11.75;;;;;;;12.17;100.00;102104.97;2616649;31;20173;-55
2022/10/04 03:11:48;;;;;;;18.83;11.10;;;;;;;12.26;100.00;102098.00;2616716;36;20041;-54
2022/10/04 03:14:21;;;;;;;22.17;11.63;;;;;;;12.24;100.00;102105.38;2615519;36;20031;-55
2022/10/04 03:16:53;;;;;;;18.83;12.23;;;;;;;12.19;100.00;102097.63;2615378;36;20636;-53
2022/10/04 03:19:25;;;;;;;20.48;12.05;;;;;;;12.12;100.00;102100.88;2614449;36;20035;-52
2022/10/04 03:21:57;;;;;;;19.45;11.40;;;;;;;12.02;100.00;102090.78;2609777;36;20029;-56
2022/10/04 03:24:30;;;;;;;17.88;11.18;;;;;;;12.02;100.00;102084.56;2615725;36;20045;-52
2022/10/04 03:27:04;;;;;;;17.73;11.57;;;;;;;12.00;100.00;102087.38;2616490;36;20424;-51
2022/10/04 03:29:34;;;;;;;19.63;11.70;;;;;;;12.00;100.00;102081.09;2615225;36;20030;-53
2022/10/04 03:32:06;;;;;;;16.77;11.20;;;;;;;11.86;100.00;102080.25;2615650;36;20042;-53
2022/10/04 03:34:37;;;;;;;19.73;12.00;;;;;;;11.86;100.00;102080.25;2616238;36;20101;-52
2022/10/04 03:37:10;;;;;;;18.33;12.05;;;;;;;11.77;100.00;102080.09;2616414;36;20454;-52
2022/10/04 03:39:42;;;;;;;24.17;12.90;;;;;;;11.75;100.00;102075.66;2616583;36;20415;-54
2022/10/04 03:42:18;;;;;;;24.23;11.82;;;;;;;11.70;100.00;102085.06;2616515;31;20039;-53
2022/10/04 03:44:47;;;;;;;24.55;13.48;;;;;;;11.68;100.00;102085.19;2615885;36;20136;-52
2022/10/04 03:47:21;;;;;;;19.48;12.70;;;;;;;11.91;100.00;102088.00;2616328;36;20023;-56
2022/10/04 03:49:51;;;;;;;20.45;12.80;;;;;;;11.90;100.00;102073.66;2616009;36;20022;-52
2022/10/04 03:52:24;;;;;;;25.27;12.48;;;;;;;11.79;100.00;102079.00;2615827;36;20023;-54
2022/10/04 03:54:54;;;;;;;24.23;12.10;;;;;;;11.72;100.00;102073.19;2615776;36;20274;-53
2022/10/04 03:57:26;;;;;;;21.33;12.98;;;;;;;11.71;100.00;102079.56;2616321;36;20049;-53
2022/10/04 03:59:55;;;;;;;19.60;12.38;;;;;;;11.66;100.00;102078.19;2615683;36;20538;-53
2022/10/04 04:02:34;;;;;;;19.65;12.93;;;;;;;11.47;100.00;102079.53;2614965;36;20045;-54
2022/10/04 04:05:11;;;;;;;22.60;12.95;;;;;;;11.61;100.00;102070.44;2616421;36;20439;-52
2022/10/04 04:07:45;;;;;;;18.10;11.60;;;;;;;11.42;100.00;102070.06;2616301;36;20123;-54
2022/10/04 04:10:20;;;;;;;20.65;11.50;;;;;;;11.32;100.00;102069.88;2616293;36;20030;-52
2022/10/04 04:12:56;;;;;;;22.17;12.38;;;;;;;11.38;100.00;102061.31;2616263;36;20038;-56
2022/10/04 04:15:30;;;;;;;19.83;12.40;;;;;;;11.26;100.00;102068.47;2614931;36;20041;-52
2022/10/04 04:18:02;;;;;;;22.85;13.65;;;;;;;11.20;100.00;102063.53;2615334;36;20034;-53
2022/10/04 04:20:35;;;;;;;25.85;12.90;;;;;;;11.31;100.00;102057.38;2616056;36;20046;-54
2022/10/04 04:23:13;;;;;;;22.88;13.95;;;;;;;11.29;100.00;102048.53;2615989;31;20042;-54
2022/10/04 04:25:44;;;;;;;25.92;14.18;;;;;;;11.29;100.00;102048.53;2616063;36;20467;-57
2022/10/04 04:28:26;;;;;;;28.02;13.80;;;;;;;11.25;100.00;102052.41;2616051;36;20035;-52
2022/10/04 04:30:59;;;;;;;29.17;15.43;;;;;;;11.26;100.00;102046.06;2615757;36;20034;-54
2022/10/04 04:33:31;;;;;;;33.90;17.90;;;;;;;11.17;100.00;102048.47;2615907;36;20030;-51
2022/10/04 04:36:06;;;;;;;27.48;16.45;;;;;;;11.19;100.00;102054.59;2615523;36;20042;-54
2022/10/04 04:39:32;;;;;;;29.33;15.65;;;;;;;11.27;100.00;102055.88;2615507;36;20038;-53
2022/10/04 04:41:34;;;;;;;39.15;17.40;;;;;;;11.16;100.00;102053.94;2616545;36;20018;-54
2022/10/04 04:44:18;;;;;;;37.08;16.60;;;;;;;11.14;100.00;102043.28;2616395;39;20431;-53
2022/10/04 04:46:47;;;;;;;32.42;15.57;;;;;;;11.19;100.00;102046.50;2613643;36;20026;-52
2022/10/04 04:49:18;;;;;;;33.97;15.07;;;;;;;11.16;100.00;102041.34;2616005;31;20023;-52
2022/10/04 04:51:52;;;;;;;40.58;15.68;;;;;;;11.12;100.00;102042.53;2612544;36;20069;-54
2022/10/04 04:54:25;;;;;;;34.67;16.30;;;;;;;11.22;100.00;102046.28;2614863;36;20452;-53
2022/10/04 04:56:56;;;;;;;33.75;16.95;;;;;;;11.12;100.00;102045.22;2615953;36;20045;-55
2022/10/04 04:59:29;;;;;;;30.83;16.15;;;;;;;11.08;100.00;102041.03;2615058;36;20161;-49
2022/10/04 05:01:58;;;;;;;36.20;16.50;;;;;;;11.14;100.00;102037.88;2614348;36;20141;-56
2022/10/04 05:04:27;;;;;;;35.72;16.45;;;;;;;11.22;100.00;102051.69;2611755;36;20038;-54
2022/10/04 05:07:04;;;;;;;31.80;16.17;;;;;;;11.17;100.00;102051.16;2612770;36;20045;-55
2022/10/04 05:09:34;;;;;;;34.50;17.85;;;;;;;11.07;100.00;102036.63;2613283;31;20038;-56
2022/10/04 05:12:08;;;;;;;30.95;16.30;;;;;;;11.17;100.00;102029.59;2611857;31;20034;-54
2022/10/04 05:14:42;;;;;;;29.80;15.52;;;;;;;11.21;100.00;102043.69;2611040;31;20404;-56
2022/10/04 05:17:20;;;;;;;31.92;16.38;;;;;;;11.19;100.00;102037.56;2614243;36;20038;-52
2022/10/04 05:19:48;;;;;;;32.40;18.08;;;;;;;11.09;100.00;102042.75;2615595;36;20042;-51
2022/10/04 05:22:24;;;;;;;32.53;14.97;;;;;;;11.07;100.00;102055.50;2613553;36;20057;-54
2022/10/04 05:24:55;;;;;;;29.48;15.98;;;;;;;11.02;100.00;102050.41;2607706;36;20946;-50
2022/10/04 05:27:30;;;;;;;26.83;15.20;;;;;;;11.04;100.00;102048.47;2614473;36;20039;-54
2022/10/04 05:30:09;;;;;;;30.25;15.90;;;;;;;11.04;100.00;102045.78;2611243;36;20034;-54
2022/10/04 05:32:50;;;;;;;25.67;15.13;;;;;;;10.95;100.00;102051.81;2615306;36;20073;-53
2022/10/04 05:35:21;;;;;;;26.38;15.88;;;;;;;11.10;100.00;102046.31;2614135;36;20680;-50
2022/10/04 05:37:59;;;;;;;25.65;14.80;;;;;;;11.10;100.00;102049.88;2615767;36;20038;-53
2022/10/04 05:40:43;;;;;;;26.67;15.32;;;;;;;11.02;100.00;102052.25;2615817;36;20037;-56
2022/10/04 05:43:33;;;;;;;27.30;15.20;;;;;;;11.11;100.00;102046.19;2616412;36;20134;-52
2022/10/04 05:46:24;;;;;;;22.83;14.70;;;;;;;11.13;100.00;102044.25;2613876;36;20061;-52
2022/10/04 05:48:56;;;;;;;24.70;13.82;;;;;;;11.11;100.00;102045.34;2615900;31;20038;-57
2022/10/04 05:51:26;;;;;;;26.90;15.18;;;;;;;11.07;100.00;102047.41;2614334;36;20029;-55
2022/10/04 05:53:55;;;;;;;23.05;14.25;;;;;;;11.11;100.00;102054.28;2614886;36;20447;-52
2022/10/04 05:56:48;;;;;;;26.27;14.27;;;;;;;11.01;100.00;102062.19;2615955;36;20423;-52
2022/10/04 05:59:31;;;;;;;24.42;14.13;;;;;;;10.99;100.00;102057.84;2615472;36;20126;-55
2022/10/04 06:02:11;;;;;;;30.25;14.43;;;;;;;11.01;100.00;102051.41;2614926;31;20065;-55
2022/10/04 06:04:55;;;;;;;30.80;15.85;;;;;;;11.00;100.00;102057.75;2614087;36;20026;-53
2022/10/04 06:07:30;;;;;;;23.60;14.95;;;;;;;10.90;100.00;102058.53;2611437;31;20045;-52
2022/10/04 06:10:11;;;;;;;26.95;15.50;;;;;;;10.91;100.00;102066.50;2613372;36;20075;-52
2022/10/04 06:12:48;;;;;;;25.63;14.70;;;;;;;10.84;100.00;102052.59;2613002;36;20034;-53
2022/10/04 06:15:38;;;;;;;28.08;15.48;;;;;;;10.90;100.00;102055.81;2614698;36;20031;-53
2022/10/04 06:18:38;;;;;;;27.15;16.42;;;;;;;10.84;100.00;102049.88;2614924;36;20045;-52
2022/10/04 06:21:19;;;;;;;27.77;15.43;;;;;;;10.90;100.00;102048.59;2615330;36;20042;-55
2022/10/04 06:23:54;;;;;;;27.85;15.30;;;;;;;10.86;100.00;102047.97;2615055;36;20472;-52
2022/10/04 06:26:26;;;;;;;27.15;16.67;;;;;;;10.93;100.00;102048.38;2612672;36;20061;-53
2022/10/04 06:28:59;;;;;;;28.63;15.55;;;;;;;11.02;100.00;102046.84;2612634;36;20070;-55
2022/10/04 06:31:53;;;;;;;27.50;16.85;;;;;;;10.90;100.00;102036.97;2615496;31;20041;-52
2022/10/04 06:34:46;;;;;;;26.48;15.73;;;;;;;10.93;100.00;102032.22;2614576;36;20046;-57
2022/10/04 06:37:44;;;;;;;31.00;16.48;;;;;;;10.92;100.00;102032.31;2615056;36;20405;-54
2022/10/04 06:40:54;;;;;;;29.55;16.65;;;;;;;10.92;100.00;102024.25;2614356;31;20034;-54
2022/10/04 06:43:38;;;;;;;35.55;18.25;;;;;;;11.00;100.00;102013.78;2615273;36;20034;-55
2022/10/04 06:46:16;;;;;;;32.38;17.55;;;;;;;11.10;100.00;102012.16;2615314;31;20022;-57
2022/10/04 06:49:08;;;;;;;34.83;19.15;;;;;;;11.18;100.00;102004.34;2614633;36;20034;-56
2022/10/04 06:51:53;;;;;;;29.48;17.45;;;;;;;11.17;100.00;101997.25;2615067;36;20194;-52
2022/10/04 06:54:38;;;;;;;32.42;16.70;;;;;;;11.13;100.00;102006.53;2614343;36;20026;-53
2022/10/04 06:57:31;;;;;;;27.00;15.35;;;;;;;11.14;100.00;102005.53;2614906;36;20034;-56
2022/10/04 07:00:09;;;;;;;31.80;16.27;;;;;;;11.30;100.00;101996.34;2613945;36;20034;-56
2022/10/04 07:02:44;;;;;;;24.45;15.43;;;;;;;11.35;100.00;101999.56;2616430;36;21322;-55
2022/10/04 07:05:29;;;;;;;28.92;15.60;;;;;;;11.60;100.00;101995.94;2616051;36;20141;-51
2022/10/04 07:08:29;;;;;;;31.75;16.27;;;;;;;11.40;100.00;101997.41;2617564;36;20049;-55
2022/10/04 07:11:01;;;;;;;21.48;14.23;;;;;;;11.66;100.00;101992.75;2616685;36;20050;-54
2022/10/04 07:13:40;;;;;;;27.38;14.25;;;;;;;11.84;100.00;101998.59;2616403;31;20065;-53
2022/10/04 07:16:24;;;;;;;22.92;14.07;;;;;;;11.79;100.00;101992.66;2615161;36;20045;-54
2022/10/04 07:19:03;;;;;;;25.42;13.95;;;;;;;12.17;100.00;102002.41;2615859;36;20033;-54
2022/10/04 07:21:41;;;;;;;25.27;15.05;;;;;;;12.09;100.00;101996.75;2614724;36;20539;-55
2022/10/04 07:24:20;;;;;;;18.92;13.05;;;;;;;12.11;100.00;101994.78;2613994;36;20039;-56
2022/10/04 07:26:52;;;;;;;22.27;13.35;;;;;;;12.20;100.00;102002.16;2616516;36;20034;-53
2022/10/04 07:29:26;;;;;;;20.75;13.10;;;;;;;12.14;100.00;102004.50;2614309;36;20026;-54
2022/10/04 07:32:09;;;;;;;20.50;12.18;;;;;;;12.30;100.00;101996.06;2615251;36;20038;-52
2022/10/04 07:34:44;;;;;;;20.17;11.25;;;;;;;12.49;100.00;101998.19;2616921;36;20034;-51
2022/10/04 07:37:15;;;;;;;22.27;12.23;;;;;;;12.51;100.00;101994.38;2615967;36;20034;-54
2022/10/04 07:39:51;;;;;;;18.48;11.40;;;;;;;12.67;100.00;102004.81;2606537;36;20041;-53
2022/10/04 07:42:29;;;;;;;20.00;10.15;;;;;;;12.73;100.00;102003.47;2615393;36;20023;-51
2022/10/04 07:45:07;;;;;;;16.35;10.32;;;;;;;12.71;100.00;102016.28;2615352;36;20027;-56
2022/10/04 07:47:35;;;;;;;19.17;11.32;;;;;;;13.01;100.00;102017.50;2614709;36;20038;-54
2022/10/04 07:50:22;;;;;;;17.45;10.73;;;;;;;13.00;100.00;102013.06;2614916;36;20065;-51
2022/10/04 07:52:57;;;;;;;16.60;10.85;;;;;;;13.31;100.00;102015.00;2614902;36;20077;-55
2022/10/04 07:55:44;;;;;;;21.05;10.75;;;;;;;13.62;100.00;102008.94;2615329;31;20050;-54
2022/10/04 07:58:25;;;;;;;17.70;10.15;;;;;;;13.62;100.00;102009.78;2615489;36;20383;-51
2022/10/04 08:00:58;;;;;;;16.35;9.57;;;;;;;14.13;100.00;102012.78;2614923;36;20038;-52
2022/10/04 08:03:47;;;;;;;16.95;9.63;;;;;;;13.74;100.00;102013.31;2614561;31;20031;-52
2022/10/04 08:06:22;;;;;;;14.48;10.18;;;;;;;13.50;100.00;102018.94;2614766;36;20065;-54
2022/10/04 08:09:15;;;;;;;20.25;10.02;;;;;;;13.39;100.00;102018.94;2614731;36;20035;-58
2022/10/04 08:11:55;;;;;;;14.40;9.70;;;;;;;13.49;100.00;102023.47;2616002;36;20034;-53
2022/10/04 08:14:32;;;;;;;11.68;9.65;;;;;;;13.43;100.00;102015.88;2614896;31;20142;-55
2022/10/04 08:17:16;;;;;;;18.48;9.90;;;;;;;13.57;100.00;102013.84;2615412;36;20443;-55
2022/10/04 08:19:58;;;;;;;14.18;9.25;;;;;;;13.57;100.00;102003.88;2615984;36;20022;-53
2022/10/04 08:22:40;;;;;;;17.52;9.48;;;;;;;13.44;100.00;102005.91;2615031;36;20685;-52
2022/10/04 08:25:20;;;;;;;15.50;9.00;;;;;;;13.53;100.00;102002.44;2615347;36;20034;-54
2022/10/04 08:30:58;;;;;;;16.15;9.98;;;;;;;13.59;100.00;101999.22;2615274;36;20035;-57
2022/10/04 08:33:38;;;;;;;14.68;8.82;;;;;;;13.85;100.00;102004.28;2614630;36;20030;-54
2022/10/04 08:36:20;;;;;;;18.60;9.20;;;;;;;14.05;100.00;101996.34;2616023;36;20577;-56
2022/10/04 08:38:52;;;;;;;16.50;8.95;;;;;;;14.01;100.00;101996.56;2615596;36;20041;-52
2022/10/04 08:42:03;;;;;;;13.98;8.63;;;;;;;14.00;100.00;101988.59;2608307;36;20023;-54
2022/10/04 08:45:02;;;;;;;14.27;8.73;;;;;;;14.45;100.00;101990.19;2613505;36;20022;-54
2022/10/04 08:47:50;;;;;;;19.75;8.45;;;;;;;14.51;100.00;101989.63;2614928;36;20022;-51
2022/10/04 08:50:54;;;;;;;13.03;7.93;;;;;;;14.58;100.00;101993.53;2608194;36;20566;-52
2022/10/04 08:54:13;;;;;;;18.80;8.05;;;;;;;14.87;100.00;101995.56;2615259;31;20300;-52
2022/10/04 08:57:07;;;;;;;10.98;7.40;;;;;;;15.02;100.00;101991.47;2615599;36;20408;-51
2022/10/04 09:00:06;;;;;;;10.80;7.18;;;;;;;15.22;100.00;101983.38;2614954;36;20188;-54
2022/10/04 09:03:00;;;;;;;12.18;7.32;;;;;;;15.26;100.00;101992.97;2614367;36;20105;-53
2022/10/04 09:05:55;;;;;;;12.07;6.75;;;;;;;15.39;100.00;101988.13;2616432;36;20439;-53
2022/10/04 09:08:56;;;;;;;11.65;7.35;;;;;;;15.36;100.00;101993.00;2615551;36;20041;-54
2022/10/04 09:11:43;;;;;;;9.93;6.45;;;;;;;15.72;100.00;101993.31;2615978;36;20042;-54
2022/10/04 09:14:37;;;;;;;12.23;6.65;;;;;;;15.52;100.00;101993.31;2615239;36;20039;-50
2022/10/04 09:17:21;;;;;;;10.82;6.70;;;;;;;15.59;100.00;101975.47;2615817;36;20174;-54
2022/10/04 09:19:57;;;;;;;12.82;6.70;;;;;;;15.51;100.00;101982.59;2615210;36;20547;-54
2022/10/04 09:22:48;;;;;;;8.43;5.82;;;;;;;15.54;100.00;101985.00;2615271;36;20639;-54
2022/10/04 09:25:34;;;;;;;10.32;6.25;;;;;;;15.50;100.00;101978.16;2615714;36;20122;-57
2022/10/04 09:28:38;;;;;;;11.43;7.32;;;;;;;15.46;100.00;101982.13;2615689;31;20030;-56
2022/10/04 09:31:30;;;;;;;12.60;6.20;;;;;;;15.61;100.00;101980.75;2615650;36;20038;-57
2022/10/04 09:34:23;;;;;;;10.43;6.78;;;;;;;15.98;100.00;101980.06;2614256;36;20041;-56
2022/10/04 09:37:19;;;;;;;9.98;6.22;;;;;;;15.95;100.00;101977.63;2615722;36;20563;-51
2022/10/04 09:40:19;;;;;;;13.18;7.05;;;;;;;15.85;100.00;101965.91;2615416;36;20038;-57
2022/10/04 09:43:10;;;;;;;11.43;6.60;;;;;;;16.05;100.00;101975.75;2615623;36;20427;-60
2022/10/04 09:46:01;;;;;;;10.30;6.55;;;;;;;15.91;100.00;101973.47;2615652;36;20030;-50
2022/10/04 09:48:39;;;;;;;8.65;6.10;;;;;;;16.10;100.00;101972.59;2608935;36;20038;-58
2022/10/04 09:51:22;;;;;;;12.03;6.73;;;;;;;16.23;100.00;101969.59;2615644;36;20057;-53
2022/10/04 09:54:23;;;;;;;10.43;5.85;;;;;;;16.35;100.00;101968.41;2615840;36;20284;-52
2022/10/04 09:57:20;;;;;;;12.65;5.97;;;;;;;16.34;100.00;101955.84;2615489;31;20058;-52
2022/10/04 10:00:09;;;;;;;12.18;5.95;;;;;;;16.46;100.00;101953.81;2615326;36;20030;-56
2022/10/04 10:03:08;;;;;;;9.45;5.50;;;;;;;16.44;100.00;101959.38;2615951;36;20424;-53
2022/10/04 10:06:06;;;;;;;7.60;5.93;;;;;;;16.19;100.00;101960.00;2615990;31;20063;-54
2022/10/04 10:08:48;;;;;;;9.53;6.00;;;;;;;16.14;100.00;101955.03;2614700;31;20035;-55
2022/10/04 10:14:32;;;;;;;9.15;5.40;;;;;;;16.75;100.00;101942.78;2615868;36;20530;-56
2022/10/04 10:17:13;;;;;;;8.88;5.85;;;;;;;16.97;100.00;101940.72;2613549;36;20035;-51
2022/10/04 10:20:15;;;;;;;10.63;6.18;;;;;;;17.15;100.00;101944.34;2614027;36;20447;-54
2022/10/04 10:23:08;;;;;;;11.40;5.85;;;;;;;16.69;100.00;101959.72;2615223;31;20061;-49
2022/10/04 10:25:48;;;;;;;7.47;5.63;;;;;;;16.89;100.00;101965.09;2614681;36;20038;-58
2022/10/04 10:28:45;;;;;;;9.35;5.85;;;;;;;16.68;100.00;101954.41;2616095;36;20031;-54
2022/10/04 10:31:29;;;;;;;8.50;5.35;;;;;;;16.80;100.00;101956.81;2615566;36;20027;-59
2022/10/04 10:34:22;;;;;;;9.50;5.80;;;;;;;17.13;100.00;101959.94;2614804;36;20031;-53
2022/10/04 10:37:08;;;;;;;9.10;5.60;;;;;;;16.87;100.00;101962.53;2615780;36;20500;-57
2022/10/04 10:39:58;;;;;;;13.90;7.00;;;;;;;16.68;100.00;101966.16;2614863;36;20022;-53
2022/10/04 10:42:57;;;;;;;12.65;7.15;;;;;;;16.65;100.00;101971.88;2615706;36;20065;-57
2022/10/04 10:45:42;;;;;;;12.85;6.93;;;;;;;16.93;100.00;101971.94;2614965;36;20652;-50
2022/10/04 10:48:17;;;;;;;10.98;5.93;;;;;;;17.13;100.00;101957.22;2615233;36;20520;-60
2022/10/04 10:51:01;;;;;;;7.95;5.35;;;;;;;17.13;100.00;101946.34;2616498;36;20062;-52
2022/10/04 10:54:05;;;;;;;9.93;5.07;;;;;;;17.69;100.00;101940.78;2602969;31;20030;-55
2022/10/04 10:56:44;;;;;;;11.50;6.30;;;;;;;17.52;100.00;101932.47;2616131;36;20045;-52
2022/10/04 10:59:48;;;;;;;11.43;5.93;;;;;;;17.55;100.00;101934.03;2614249;36;20575;-56
2022/10/04 11:02:43;;;;;;;12.43;5.50;;;;;;;17.69;100.00;101927.16;2615500;36;20046;-54
2022/10/04 11:05:35;;;;;;;8.27;5.43;;;;;;;18.02;100.00;101925.59;2612470;36;20070;-59
2022/10/04 11:08:19;;;;;;;11.05;6.13;;;;;;;17.96;100.00;101926.25;2614857;36;20057;-55
2022/10/04 11:11:17;;;;;;;10.90;6.07;;;;;;;17.74;100.00;101926.69;2616105;31;20034;-55
2022/10/04 11:14:24;;;;;;;9.93;5.73;;;;;;;17.24;100.00;101926.25;2616222;36;20411;-54
2022/10/04 11:17:19;;;;;;;11.48;6.07;;;;;;;17.75;100.00;101922.97;2613515;36;20824;-56
2022/10/04 11:20:23;;;;;;;8.95;5.50;;;;;;;17.80;100.00;101926.94;2616196;36;20039;-57
2022/10/04 11:23:24;;;;;;;9.32;5.68;;;;;;;17.59;100.00;101929.13;2616538;36;20457;-57
2022/10/04 11:26:34;;;;;;;11.38;6.28;;;;;;;17.64;100.00;101916.75;2616056;36;20535;-56
2022/10/04 11:29:16;;;;;;;10.88;5.90;;;;;;;17.72;100.00;101913.22;2615375;36;20042;-55
2022/10/04 11:32:16;;;;;;;12.65;5.78;;;;;;;17.56;100.00;101903.06;2615590;36;20027;-56
2022/10/04 11:35:19;;;;;;;12.07;8.05;;;;;;;17.76;100.00;101903.75;2615958;31;20034;-56
2022/10/04 11:38:03;;;;;;;10.75;5.68;;;;;;;18.00;100.00;101899.53;2615873;36;20022;-58
2022/10/04 11:40:46;;;;;;;7.88;5.60;;;;;;;18.06;100.00;101900.75;2615117;36;20031;-55
2022/10/04 11:43:39;;;;;;;11.27;5.75;;;;;;;18.26;100.00;101894.06;2615541;36;20575;-53
2022/10/04 11:46:34;;;;;;;9.00;5.60;;;;;;;18.09;100.00;101895.81;2615282;36;20046;-56
2022/10/04 11:49:15;;;;;;;15.43;6.75;;;;;;;17.55;100.00;101898.66;2615409;36;20049;-58
2022/10/04 11:52:18;;;;;;;9.45;5.90;;;;;;;17.54;100.00;101898.81;2615983;36;20038;-52
2022/10/04 11:55:20;;;;;;;13.32;5.55;;;;;;;17.79;100.00;101897.13;2608364;31;20035;-59
2022/10/04 11:57:53;;;;;;;9.45;6.32;;;;;;;17.73;100.00;101897.78;2615145;36;20050;-53
2022/10/04 12:00:27;;;;;;;9.73;5.50;;;;;;;17.83;100.00;101896.66;2614554;31;20034;-56
2022/10/04 12:03:34;;;;;;;12.07;5.50;;;;;;;18.10;100.00;101894.81;2608978;36;20562;-56
2022/10/04 12:06:25;;;;;;;9.80;5.25;;;;;;;18.51;100.00;101896.94;2614738;36;20022;-58
2022/10/04 12:09:05;;;;;;;11.32;5.82;;;;;;;18.50;100.00;101893.34;2615834;31;20430;-57
2022/10/04 12:15:12;;;;;;;11.82;4.95;;;;;;;18.55;100.00;101885.53;2614631;36;20034;-61
2022/10/04 12:18:16;;;;;;;11.95;5.25;;;;;;;18.87;100.00;101873.06;2616072;36;20043;-55
2022/10/04 12:21:13;;;;;;;9.88;5.47;;;;;;;18.42;100.00;101862.44;2616305;36;20056;-57